KBPT

Jack Brooks Regional Airport

Beaumont/Port Arthur, Texas, USA
KBPT 170408Z 1704/1724 15006KT P6SM VCSH SCT010 OVC040 TEMPO 1704/1707 SCT008 BKN025 FM170700 15008KT P6SM -SHRA OVC008 FM171200 18008KT P6SM -SHRA OVC003 FM171500 22007KT P6SM OVC008
Issued Valid From Valid To
Jan-17 @ 04:08 UTC
(41 minutes ago)
Jan-17 @ 04:00 UTC
(49 minutes ago)
Jan-18 @ 00:00 UTC
(in 19 hours)
Jan-17 @ 04:00 to Jan-17 @ 07:00
KBPT 170408Z 1704/1724 15006KT P6SM VCSH SCT010 OVC040
Wind Visibility Clouds
150° at 6 knots Greater than 6 miles
  • Scattered at 1,000' AGL
  • Overcast at 4,000' AGL
Temporary Jan-17 @ 04:00 to Jan-17 @ 07:00
TEMPO 1704/1707 SCT008 BKN025
Clouds
  • Scattered at 800' AGL
  • Broken at 2,500' AGL
From Jan-17 @ 07:00 to Jan-17 @ 12:00
FM170700 15008KT P6SM -SHRA OVC008
Wind Visibility Clouds Conditions
150° at 8 knots Greater than 6 miles
  • Overcast at 800' AGL
  • Light Rain
From Jan-17 @ 12:00 to Jan-17 @ 15:00
FM171200 18008KT P6SM -SHRA OVC003
Wind Visibility Clouds Conditions
180° at 8 knots Greater than 6 miles
  • Overcast at 300' AGL
  • Light Rain
From Jan-17 @ 15:00 to Jan-18 @ 00:00
FM171500 22007KT P6SM OVC008
Wind Visibility Clouds
220° at 7 knots Greater than 6 miles
  • Overcast at 800' AGL
KBPT 170408Z 1704/1724 15006KT P6SM VCSH SCT010 OVC040 TEMPO 1704/1707 SCT008 BKN025 FM170700 15008KT P6SM -SHRA OVC008 FM171200 18008KT P6SM -SHRA OVC003 FM171500 22007KT P6SM OVC008
Issued Jan-17 @ 04:08 UTC
(41 minutes ago)
Valid From Jan-17 @ 04:00 UTC
(49 minutes ago)
Valid To Jan-18 @ 00:00 UTC
(in 19 hours)
Jan-17 @ 04:00 - Jan-17 @ 07:00
Wind Visibility
150° at 6 knots Greater than 6 miles
Clouds
  • Scattered at 1,000' AGL
  • Overcast at 4,000' AGL
Temporary Jan-17 @ 04:00 - Jan-17 @ 07:00
Clouds
  • Scattered at 800' AGL
  • Broken at 2,500' AGL
From Jan-17 @ 07:00 - Jan-17 @ 12:00
Wind Visibility
150° at 8 knots Greater than 6 miles
Clouds
  • Overcast at 800' AGL
Conditions
  • Light Rain
From Jan-17 @ 12:00 - Jan-17 @ 15:00
Wind Visibility
180° at 8 knots Greater than 6 miles
Clouds
  • Overcast at 300' AGL
Conditions
  • Light Rain
From Jan-17 @ 15:00 - Jan-18 @ 00:00
Wind Visibility
220° at 7 knots Greater than 6 miles
Clouds
  • Overcast at 800' AGL